Skjern, Denmark
Current Conditions -  °F | °C
As of 5:50 AM on Saturday 25 Oct 2014 (Local Time) from EKBI Reporting Station
Moderate Rain Moderate Rain  
Wind Chill: 52°   Ceiling: 400
Heat Index: 52°   Visibility: 2.1mi
Dew Point: 52°   Wind: 12mph
Humidity: 100%   Direction: 180°S
Pressure: 29.88"   Gusts: NA
Location:  55.95°N, 8.5°E
Report Text: EKBI 250350Z AUTO 18010KT 3500NDV RA BR BKN004/// 11/11 Q1012
Loading
Personal Weather Stations






























Interactive Weather Map
Tropical Storm Tracking
New forecast layout! Learn more

10-Day Weather Forecast

Advertisements
Track Severe Weather on mobile